Orbital elements of COSMOS 970 DEB
| Launched | 20 December 1977 |
| Flight ended | – |
| Launch site | Tyuratam Missile and Space Center, Kazakhstan (Also known as Baikonur Cosmodrome) |
| Owner | Commonwealth of Independent States (former USSR) |
| NORAD ID | 64990 |
| Date fetched |
Epoch osculation |
Inc. [°] |
Ecc. | RA asc node [hr] |
Arg Peri. [°] |
Mean anom [°] |
Mean motion [rev/day] |
Abs. mag |
| Date fetched |
Epoch osculation |
Inc. [°] |
Ecc. | RA asc node [hr] |
Arg Peri. [°] |
Mean anom [°] |
Mean motion [rev/day] |
Abs. mag |
| 2026 May 03 17:57 | 2026 Apr 30 10:23:44 | 65.8724 | 0.01071 | 11.8083 | 33.6936 | 327.0874 | 13.74010 | – |
| 2026 May 02 17:57 | 2026 Apr 30 10:23:44 | 65.8724 | 0.01071 | 11.8083 | 33.6936 | 327.0874 | 13.74010 | – |
| 2026 May 01 17:56 | 2026 Apr 30 10:23:44 | 65.8724 | 0.01071 | 11.8083 | 33.6936 | 327.0874 | 13.74010 | – |
| 2026 Apr 30 17:56 | 2026 Apr 30 10:23:44 | 65.8724 | 0.01071 | 11.8083 | 33.6936 | 327.0874 | 13.74010 | – |
| 2026 Apr 29 17:57 | 2026 Apr 23 12:26:28 | 65.8731 | 0.01068 | 12.9437 | 37.4434 | 327.0874 | 13.74010 | – |
| 2026 Apr 28 17:56 | 2026 Apr 23 12:26:28 | 65.8731 | 0.01068 | 12.9437 | 37.4434 | 327.0874 | 13.74010 | – |
| 2026 Apr 27 17:58 | 2026 Apr 23 12:26:28 | 65.8731 | 0.01068 | 12.9437 | 37.4434 | 327.0874 | 13.74010 | – |
| 2026 Apr 26 17:58 | 2026 Apr 23 12:26:28 | 65.8731 | 0.01068 | 12.9437 | 37.4434 | 327.0874 | 13.74010 | – |
| 2026 Apr 25 17:58 | 2026 Apr 23 12:26:28 | 65.8731 | 0.01068 | 12.9437 | 37.4434 | 327.0874 | 13.74010 | – |
| 2026 Apr 24 17:59 | 2026 Apr 23 12:26:28 | 65.8731 | 0.01068 | 12.9437 | 37.4434 | 327.0874 | 13.74010 | – |
| 2026 Apr 23 17:57 | 2026 Apr 17 06:12:29 | 65.8729 | 0.01065 | 13.9714 | 40.8538 | 327.0874 | 13.74010 | – |
| 2026 Apr 22 17:57 | 2026 Apr 17 06:12:29 | 65.8729 | 0.01065 | 13.9714 | 40.8538 | 327.0874 | 13.74010 | – |
| 2026 Apr 21 17:57 | 2026 Apr 17 06:12:29 | 65.8729 | 0.01065 | 13.9714 | 40.8538 | 327.0874 | 13.74010 | – |
| 2026 Apr 20 17:57 | 2026 Apr 17 06:12:29 | 65.8729 | 0.01065 | 13.9714 | 40.8538 | 327.0874 | 13.74010 | – |
| 2026 Apr 19 17:58 | 2026 Apr 17 06:12:29 | 65.8729 | 0.01065 | 13.9714 | 40.8538 | 327.0874 | 13.74010 | – |
| 2026 Apr 18 17:56 | 2026 Apr 13 00:53:16 | 65.8730 | 0.01064 | 14.6646 | 43.1512 | 327.0874 | 13.74010 | – |
| 2026 Apr 16 17:57 | 2026 Apr 13 00:53:16 | 65.8730 | 0.01064 | 14.6646 | 43.1512 | 327.0874 | 13.74010 | – |
| 2026 Apr 14 17:57 | 2026 Apr 13 00:53:16 | 65.8730 | 0.01064 | 14.6646 | 43.1512 | 327.0874 | 13.74010 | – |
| 2026 Apr 13 17:57 | 2026 Apr 13 00:53:16 | 65.8730 | 0.01064 | 14.6646 | 43.1512 | 327.0874 | 13.74010 | – |
| 2026 Apr 12 17:57 | 2026 Apr 07 08:37:46 | 65.8726 | 0.01063 | 15.5968 | 46.2364 | 327.0874 | 13.74010 | – |
| 2026 Apr 11 17:57 | 2026 Apr 07 08:37:46 | 65.8726 | 0.01063 | 15.5968 | 46.2364 | 327.0874 | 13.74010 | – |
| 2026 Apr 10 17:58 | 2026 Apr 07 08:37:46 | 65.8726 | 0.01063 | 15.5968 | 46.2364 | 327.0874 | 13.74010 | – |
| 2026 Apr 09 18:01 | 2026 Apr 07 08:37:46 | 65.8726 | 0.01063 | 15.5968 | 46.2364 | 327.0874 | 13.74010 | – |
| 2026 Apr 08 17:57 | 2026 Apr 07 08:37:46 | 65.8726 | 0.01063 | 15.5968 | 46.2364 | 327.0874 | 13.74010 | – |
| 2026 Apr 07 17:57 | 2026 Apr 02 02:51:07 | 65.8721 | 0.01062 | 16.4573 | 49.0622 | 327.0874 | 13.74010 | – |
| 2026 Apr 06 17:57 | 2026 Apr 02 02:51:07 | 65.8721 | 0.01062 | 16.4573 | 49.0622 | 327.0874 | 13.74010 | – |